YRBN weather

Robertson Airstrip
Carrington Falls, New South Wales, Australia

Public forecast

Using degrees Celsius for public forecast. Weather courtesy of forecast.io.

Closest aviation weather report (METAR) to Robertson Airstrip

Closest report is Nowra Airport, 19.0 nm (35.1 km) SSW. Retrieved 2020/01/29 07:00 UTC (37 minutes ago):

YSNW 290700Z 13009KT 9999 SCT032 26/17 Q1016 NOSIG

Closest aviation forecast (TAF) to Robertson Airstrip

Closest forecast is Sydney Kingsford Smith International Airport, 49.6 nm (91.9 km) NNE. Retrieved 2020/01/29 06:42 UTC (55 minutes ago):

TAF YSSY 290504Z 2906/3012 12012KT 9999 FEW030 FM290900 10006KT 9999 SCT025 FM291800 29006KT 9999 SCT025 FM292300 03010KT CAVOK FM300300 05015G25KT CAVOK FM300700 04014KT 9999 SCT010